Station info - map view · info · telemetry · weather · raw · status · beacons · messages · bulletins · browse · moving · my account
Callsign, ship name or locator: Clear       
It is possible to search using wildcards (*?) after a prefix. Example: OH*
APRS station IW2MVS-9 - show graphs
Map loading...
Comment: Op. Luigi - A.R.I. - Re Lomazzo
Mic-E message: En route
Location: 45°47.25' N 9°03.29' E - locator JN45MS69NA - show map - static map
3.2 miles Northwest bearing 302° from Senna Comasco, Provincia di Como, Lombardy, Italy [?]
3.7 miles West bearing 290° from Capiago Intimiano, Provincia di Como, Lombardy, Italy
23.2 miles North bearing 344° from Milan, Province of Milan, Lombardy, Italy
82.7 miles Northeast bearing 53° from Torino, Provincia di Torino, Piedmont, Italy
Last position: 2018-09-25 02:37:40 EDT (4h24m ago)
2018-09-25 08:37:40 CEST local time at Senna Comasco, Italy [?]
Altitude: 1066 ft
Course: 124°
Speed: 3 MPH
Device: Yaesu: FTM-350 (rig)
Last path: IW2MVS-9>TU4WR5 via WIDE1-1,WIDE2-1,qAR,IR2UBX-12 (good)
Positions stored: 69692
Packet rate: 47 seconds between packets on average during 616 seconds.
Other SSIDs: IW2MVS-1 IW2MVS-10 IW2MVS-11 IW2MVS-15 IW2MVS-3
Stations near current position of IW2MVS-9 - show more
callsign distance last heard - EDT      callsign distance last heard - EDT
IW2HUZ-90.8 miles 71°2018-09-13 09:40:45 IW2MVS-101.1 miles 216°2018-09-25 06:36:38
IW2MVS-33.1 miles 235°2018-09-25 07:00:12 IW2MVS-113.1 miles 235°2018-09-25 06:50:08
IW2MVS-153.1 miles 235°2018-09-25 06:50:18 IN3UVS-93.7 miles 177°2018-09-17 07:25:17
IW2NCH-113.8 miles 176°2018-09-04 10:43:02 IW2NCH-33.8 miles 175°2018-09-20 01:29:58
I2OHY-74.2 miles 180°2018-08-27 17:40:19 IR2UBA-DP4.3 miles 46°2018-09-25 06:46:29
IW2NCH-104.4 miles 188°2018-09-20 07:33:51 IU2KBW-74.5 miles 335°2018-09-18 04:28:05
IK2OCP-34.6 miles 239°2018-09-25 07:00:05 HB3YVK-74.8 miles 222°2018-09-13 08:21:40
IR2UGN-RP4.8 miles 47°2018-09-25 06:52:18 IW2NCH-124.9 miles 169°2018-09-25 07:01:11
IK2OCP-24.9 miles 235°2018-09-25 07:01:24 HB9GHU-15.5 miles 336°2018-09-14 12:31:27
HB9FWB-15.5 miles 336°2018-09-09 15:43:03 CW77835.7 miles 189°2018-09-25 07:00:40
Stations which heard IW2MVS-9 directly on radio –
callsign pkts first heard - EDT last heard longest (tx => rx) longest at - EDT
IK2XDE-6 8 2018-09-08 12:54:23 2018-09-08 13:17:22 JN45PN > JN45MQ 14.4 miles 312° 2018-09-08 12:54:23
IR2AO 18 2018-09-08 12:44:08 2018-09-08 13:08:59 JN45SO > JN45PM 12.0 miles 241° 2018-09-08 12:44:08
IR2UBX-11 7 2018-09-08 12:54:20 2018-09-08 13:16:44 JN45PN > JN45MQ 15.8 miles 306° 2018-09-08 12:54:20
IK3XTM 6 2018-09-08 07:04:00 2018-09-08 12:09:54 JN55DL > JN55LP 33.2 miles 73° 2018-09-08 12:09:54
IR2BZ 52 2018-09-08 11:59:36 2018-09-08 13:17:20 JN45MN > JN45XO 45.5 miles 88° 2018-09-08 13:17:20
IR2BT 3 2018-09-08 11:59:54 2018-09-08 12:07:22 JN55EK > JN55FO 14.2 miles 16° 2018-09-08 11:59:54
IR2Y 14 2018-09-08 07:03:55 2018-09-08 12:08:06 JN55DL > JN55EK 5.0 miles 150° 2018-09-08 12:08:06
IR2S 39 2018-09-08 07:03:55 2018-09-08 13:17:20 JN45MN > JN55DQ 60.4 miles 83° 2018-09-08 13:17:20
IR2BW 18 2018-09-08 07:03:55 2018-09-08 12:22:32 JN55AN > JN55DN 12.2 miles 90° 2018-09-08 12:22:32
IR2DF 1 2018-09-08 12:22:04 2018-09-08 12:22:04 JN55AN > JN55AS 12.8 miles 357° 2018-09-08 12:22:04
IQ2LB-7 6 2018-09-08 05:46:29 2018-09-16 11:07:52 JN45PT > JN45NO 17.5 miles 207° 2018-09-16 11:07:52
IK2ILW 1 2018-09-08 12:43:38 2018-09-08 12:43:38 JN45SO > JN45VV 22.3 miles 30° 2018-09-08 12:43:38
IW2MVS-11 628 2018-09-01 02:14:05 2018-09-25 02:35:39 JN45PT > JN45MS 13.5 miles 253° 2018-09-16 10:58:09
IR2UBX-12 303 2018-09-01 02:14:23 2018-09-25 02:37:40 JN45RN > JN45MQ 20.5 miles 293° 2018-09-08 06:07:02
IK2CHZ-12 1 2018-09-08 12:29:54 2018-09-08 12:29:54 JN45WP > JN45UI 20.4 miles 207° 2018-09-08 12:29:54
IR2BY 3 2018-09-08 12:21:07 2018-09-08 12:28:22 JN45WO > JN55BQ 10.6 miles 58° 2018-09-08 12:28:22
IR2UCL 18 2018-09-08 12:21:07 2018-09-08 12:45:23 JN55AN > JN45UP 19.1 miles 288° 2018-09-08 12:21:07
IU2GOH 15 2018-09-08 12:06:56 2018-09-08 12:28:51 JN45WO > JN55BL 15.5 miles 132° 2018-09-08 12:28:51
IR2UEZ 1 2018-09-08 13:17:20 2018-09-08 13:17:20 JN45MN > JN45JP 12.5 miles 294° 2018-09-08 13:17:20
IQ3VO 8 2018-09-08 07:03:55 2018-09-08 12:09:53 JN55DL > JN55MQ 39.6 miles 69° 2018-09-08 12:09:53
IR2DQ 1 2018-09-08 12:18:13 2018-09-08 12:18:13 JN55BN > JN55AD 26.9 miles 192° 2018-09-08 12:18:13
IR2AL 8 2018-09-08 12:55:19 2018-09-08 13:15:00 JN45MN > JN45OL 8.3 miles 123° 2018-09-08 13:15:00
IR2UFV-13 27 2018-09-04 02:18:45 2018-09-25 02:31:25 JN45PT > JN45NN 20.4 miles 202° 2018-09-16 10:59:12
IQ3CO-11 3 2018-09-08 06:55:51 2018-09-08 07:02:14 JN55DL > JN55OQ 44.8 miles 73° 2018-09-08 06:55:51
IZ2DDY 3 2018-09-08 12:28:57 2018-09-08 12:50:18 JN45WO > JN45SH 28.7 miles 221° 2018-09-08 12:28:57

Only position packets which were originated by the station are shown here. The range statistics show some extra long hops, because some digipeaters do not correctly add themselves to the digipeater path. Please check the raw packets.
About this site
This page shows real-time information collected from the Automatic Position Reporting System Internet network (APRS-IS). APRS is used by amateur (ham) radio operators to transmit real-time position information, weather data, telemetry and messages over the radio. A vehicle equipped with a GPS receiver, a VHF transmitter or HF transceiver and a small computer device called a tracker transmits it's location, speed and course in a small data packet, which is then received by a nearby iGate receiving site which forwards the packet on the Internet. Systems connected to the Internet can send information on the APRS-IS without a radio transmitter, or collect and display information transmitted anywhere in the world.
FAQ · Blog · Discussion group · Linking to aprs.fi · AIS sites · Service status · Database statistics · Advertising on aprs.fi · Technical details · API · Change log · Planned changes · Credits and thanks · Terms Of Service · iPhone/iPad APRS